Home > Products > Valid Products > TAF

000
FTPA31 PHFO 010300 AAA
TAFHNL
TAF AMD
PHNL 010305Z 0103/0206 07013G23KT P6SM FEW030 SCT045
     FM010600 05009KT P6SM FEW025 SCT040
     FM012000 06015G23KT P6SM FEW025 BKN045=



000
FTPA31 PHFO 010300 AAA
TAFHNL
TAF AMD
PHNL 010305Z 0103/0206 07013G23KT P6SM FEW030 SCT045
     FM010600 05009KT P6SM FEW025 SCT040
     FM012000 06015G23KT P6SM FEW025 BKN045=



000
FTPA31 PHFO 312300
TAFHNL
TAF
PHNL 312339Z 0100/0206 07013G20KT P6SM FEW030 SCT045
     FM010600 05009KT P6SM FEW025 SCT040
     FM012000 06015G23KT P6SM FEW025 BKN045=



000
FTPA31 PHFO 312300
TAFHNL
TAF
PHNL 312339Z 0100/0206 07013G20KT P6SM FEW030 SCT045
     FM010600 05009KT P6SM FEW025 SCT040
     FM012000 06015G23KT P6SM FEW025 BKN045=



000
FTPA31 PHFO 312100 AAA
TAFHNL
TAF AMD
PHNL 312106Z 3121/0124 06011KT P6SM FEW030 SCT045
     FM312200 06014G21KT P6SM FEW030 SCT045
     FM010600 05009KT P6SM FEW025 SCT040
     FM012000 06015G23KT P6SM FEW030 SCT045=



000
FTPA31 PHFO 312100 AAA
TAFHNL
TAF AMD
PHNL 312106Z 3121/0124 06011KT P6SM FEW030 SCT045
     FM312200 06014G21KT P6SM FEW030 SCT045
     FM010600 05009KT P6SM FEW025 SCT040
     FM012000 06015G23KT P6SM FEW030 SCT045=



000
FTPA31 PHFO 311700
TAFHNL
TAF
PHNL 311737Z 3118/0124 05009KT P6SM FEW030
     FM312000 06014G22KT P6SM FEW030 SCT045
     FM010600 05009KT P6SM FEW025 SCT040
     FM012000 06015G23KT P6SM FEW030 SCT045=



000
FTPA31 PHFO 311700
TAFHNL
TAF
PHNL 311737Z 3118/0124 05009KT P6SM FEW030
     FM312000 06014G22KT P6SM FEW030 SCT045
     FM010600 05009KT P6SM FEW025 SCT040
     FM012000 06015G23KT P6SM FEW030 SCT045=



000
FTPA31 PHFO 311400 AAA
TAFHNL
TAF AMD
PHNL 311459Z 3115/0118 05009KT P6SM FEW025 SCT040
     FM312000 06014G22KT P6SM FEW030 SCT045
     FM010500 05009KT P6SM FEW025 SCT045=



000
FTPA31 PHFO 311400 AAA
TAFHNL
TAF AMD
PHNL 311459Z 3115/0118 05009KT P6SM FEW025 SCT040
     FM312000 06014G22KT P6SM FEW030 SCT045
     FM010500 05009KT P6SM FEW025 SCT045=



000
FTPA31 PHFO 311100
TAFHNL
TAF
PHNL 311135Z 3112/0118 05009KT P6SM FEW025 SCT040
     FM312000 06014G22KT P6SM FEW030 SCT045
     FM010500 05009KT P6SM FEW025 SCT045=



000
FTPA31 PHFO 311100
TAFHNL
TAF
PHNL 311135Z 3112/0118 05009KT P6SM FEW025 SCT040
     FM312000 06014G22KT P6SM FEW030 SCT045
     FM010500 05009KT P6SM FEW025 SCT045=



000
FTPA31 PHFO 310900 AAA
TAFHNL
TAF AMD
PHNL 310905Z 3109/0112 05010KT P6SM FEW025 SCT040
     FM312000 06014G22KT P6SM FEW030 SCT045
     FM010500 05010KT P6SM FEW025 SCT045=



000
FTPA31 PHFO 310900 AAA
TAFHNL
TAF AMD
PHNL 310905Z 3109/0112 05010KT P6SM FEW025 SCT040
     FM312000 06014G22KT P6SM FEW030 SCT045
     FM010500 05010KT P6SM FEW025 SCT045=



000
FTPA31 PHFO 310500
TAFHNL
TAF
PHNL 310540Z 3106/0112 05009KT P6SM FEW025 SCT040
     FM312000 06014G22KT P6SM FEW030 SCT045
     FM010500 05010KT P6SM FEW025 SCT045=



000
FTPA31 PHFO 310300 AAA
TAFHNL
TAF AMD
PHNL 310300Z 3103/0106 06014G20KT P6SM FEW030 SCT045
     FM310500 05009KT P6SM FEW025 SCT045
     FM312000 06014G22KT P6SM FEW030 SCT045
     FM010500 05009KT P6SM FEW025 SCT045=



000
FTPA31 PHFO 310300 AAA
TAFHNL
TAF AMD
PHNL 310300Z 3103/0106 06014G20KT P6SM FEW030 SCT045
     FM310500 05009KT P6SM FEW025 SCT045
     FM312000 06014G22KT P6SM FEW030 SCT045
     FM010500 05009KT P6SM FEW025 SCT045=



000
FTPA31 PHFO 302300
TAFHNL
TAF
PHNL 302337Z 3100/0106 06014G22KT P6SM FEW030 SCT045
     FM310500 05009KT P6SM FEW025 SCT045
     FM312000 06014G22KT P6SM FEW030 SCT045
     FM010500 05009KT P6SM FEW025 SCT045=



000
FTPA31 PHFO 302300
TAFHNL
TAF
PHNL 302337Z 3100/0106 06014G22KT P6SM FEW030 SCT045
     FM310500 05009KT P6SM FEW025 SCT045
     FM312000 06014G22KT P6SM FEW030 SCT045
     FM010500 05009KT P6SM FEW025 SCT045=



000
FTPA31 PHFO 302100 AAA
TAFHNL
TAF AMD
PHNL 302108Z 3021/3124 06013G21KT P6SM FEW025 SCT045
     FM310500 05009KT P6SM FEW025 SCT045
     FM312000 06012G20KT P6SM FEW025 SCT045=



000
FTPA31 PHFO 302100 AAA
TAFHNL
TAF AMD
PHNL 302108Z 3021/3124 06013G21KT P6SM FEW025 SCT045
     FM310500 05009KT P6SM FEW025 SCT045
     FM312000 06012G20KT P6SM FEW025 SCT045=



000
FTPA31 PHFO 301700
TAFHNL
TAF
PHNL 301738Z 3018/3124 06009KT P6SM FEW025 SCT045
     FM302000 06013G21KT P6SM FEW025 SCT045
     FM310500 05009KT P6SM FEW025 SCT045
     FM312000 06012G20KT P6SM FEW025 SCT045=



000
FTPA31 PHFO 301700
TAFHNL
TAF
PHNL 301738Z 3018/3124 06009KT P6SM FEW025 SCT045
     FM302000 06013G21KT P6SM FEW025 SCT045
     FM310500 05009KT P6SM FEW025 SCT045
     FM312000 06012G20KT P6SM FEW025 SCT045=



000
FTPA31 PHFO 301500 AAA
TAFHNL
TAF AMD
PHNL 301505Z 3015/3118 06009KT P6SM FEW025 SCT045
     FM302000 06013G21KT P6SM FEW025 SCT045
     FM310500 05009KT P6SM FEW025 SCT045=



000
FTPA31 PHFO 301100
TAFHNL
TAF
PHNL 301137Z 3012/3118 06009KT P6SM FEW025 SCT045
     FM302000 06013G21KT P6SM FEW025 SCT045
     FM310500 05009KT P6SM FEW025 SCT045=



000
FTPA31 PHFO 301100
TAFHNL
TAF
PHNL 301137Z 3012/3118 06009KT P6SM FEW025 SCT045
     FM302000 06013G21KT P6SM FEW025 SCT045
     FM310500 05009KT P6SM FEW025 SCT045=



000
FTPA31 PHFO 301000 AAA
TAFHNL
TAF AMD
PHNL 301004Z 3010/3112 06009KT P6SM FEW025 SCT045
     FM302000 06013G21KT P6SM FEW025 SCT045
     FM310500 05009KT P6SM FEW025 SCT045=



000
FTPA31 PHFO 301000 AAA
TAFHNL
TAF AMD
PHNL 301004Z 3010/3112 06009KT P6SM FEW025 SCT045
     FM302000 06013G21KT P6SM FEW025 SCT045
     FM310500 05009KT P6SM FEW025 SCT045=



000
FTPA31 PHFO 300500
TAFHNL
TAF
PHNL 300537Z 3006/3112 05009KT P6SM FEW025 SCT045
     FM302000 06013G21KT P6SM FEW025 SCT045
     FM310500 05009KT P6SM FEW025 SCT045=



000
FTPA31 PHFO 300500
TAFHNL
TAF
PHNL 300537Z 3006/3112 05009KT P6SM FEW025 SCT045
     FM302000 06013G21KT P6SM FEW025 SCT045
     FM310500 05009KT P6SM FEW025 SCT045=



000
FTPA31 PHFO 300200 AAA
TAFHNL
TAF AMD
PHNL 300232Z 3003/3106 05012G20KT P6SM FEW025 SCT045
     FM300500 05009KT P6SM FEW025 SCT045
     FM302000 06013G21KT P6SM FEW030 SCT050
     FM310500 05009KT P6SM FEW025 SCT045=



000
FTPA31 PHFO 300200 AAA
TAFHNL
TAF AMD
PHNL 300232Z 3003/3106 05012G20KT P6SM FEW025 SCT045
     FM300500 05009KT P6SM FEW025 SCT045
     FM302000 06013G21KT P6SM FEW030 SCT050
     FM310500 05009KT P6SM FEW025 SCT045=



000
FTPA31 PHFO 292300
TAFHNL
TAF
PHNL 292320Z 3000/3106 06013G21KT P6SM FEW025 SCT045
     FM300500 05009KT P6SM FEW025 SCT045
     FM302000 06013G21KT P6SM FEW030 SCT050
     FM310500 05009KT P6SM FEW025 SCT045=



000
FTPA31 PHFO 292300
TAFHNL
TAF
PHNL 292320Z 3000/3106 06013G21KT P6SM FEW025 SCT045
     FM300500 05009KT P6SM FEW025 SCT045
     FM302000 06013G21KT P6SM FEW030 SCT050
     FM310500 05009KT P6SM FEW025 SCT045=



000
FTPA31 PHFO 292000 AAA
TAFHNL
TAF AMD
PHNL 292032Z 2921/3024 06012G21KT P6SM FEW025 SCT035 SCT050
     FM300500 05009KT P6SM FEW025 SCT045
     FM301900 06012G20KT P6SM FEW030 SCT050=



000
FTPA31 PHFO 292000 AAA
TAFHNL
TAF AMD
PHNL 292032Z 2921/3024 06012G21KT P6SM FEW025 SCT035 SCT050
     FM300500 05009KT P6SM FEW025 SCT045
     FM301900 06012G20KT P6SM FEW030 SCT050=



000
FTPA31 PHFO 291700
TAFHNL
TAF
PHNL 291720Z 2918/3024 06009KT P6SM FEW030 SCT045
     FM291900 06012G20KT P6SM FEW030 SCT050
     FM300500 05009KT P6SM FEW025 SCT045
     FM301900 06012G20KT P6SM FEW030 SCT050=



000
FTPA31 PHFO 291700
TAFHNL
TAF
PHNL 291720Z 2918/3024 06009KT P6SM FEW030 SCT045
     FM291900 06012G20KT P6SM FEW030 SCT050
     FM300500 05009KT P6SM FEW025 SCT045
     FM301900 06012G20KT P6SM FEW030 SCT050=



000
FTPA31 PHFO 291400 AAA
TAFHNL
TAF AMD
PHNL 291430Z 2914/3018 05011KT P6SM FEW025 SCT040
     FM292000 06014G24KT P6SM FEW030 SCT050
     FM300600 06011KT P6SM FEW025 SCT040=



000
FTPA31 PHFO 291400 AAA
TAFHNL
TAF AMD
PHNL 291430Z 2914/3018 05011KT P6SM FEW025 SCT040
     FM292000 06014G24KT P6SM FEW030 SCT050
     FM300600 06011KT P6SM FEW025 SCT040=



000
FTPA31 PHFO 291100
TAFHNL
TAF
PHNL 291137Z 2912/3018 05011KT P6SM FEW025 SCT040
     FM292000 06014G24KT P6SM FEW030 SCT050
     FM300600 06011KT P6SM FEW025 SCT040=



000
FTPA31 PHFO 291100
TAFHNL
TAF
PHNL 291137Z 2912/3018 05011KT P6SM FEW025 SCT040
     FM292000 06014G24KT P6SM FEW030 SCT050
     FM300600 06011KT P6SM FEW025 SCT040=



000
FTPA31 PHFO 290800 AAA
TAFHNL
TAF AMD
PHNL 290819Z 2908/3012 05011KT P6SM FEW025 SCT040
     FM292000 06014G24KT P6SM FEW030 SCT050
     FM300500 06011KT P6SM FEW025 SCT040=



000
FTPA31 PHFO 290800 AAA
TAFHNL
TAF AMD
PHNL 290819Z 2908/3012 05011KT P6SM FEW025 SCT040
     FM292000 06014G24KT P6SM FEW030 SCT050
     FM300500 06011KT P6SM FEW025 SCT040=



000
FTPA31 PHFO 290500
TAFHNL
TAF
PHNL 290523Z 2906/3012 05011KT P6SM FEW025 SCT040
     FM292000 06014G24KT P6SM FEW030 SCT050
     FM300500 06011KT P6SM FEW025 SCT040=



    US Dept of Commerce
    National Oceanic and Atmospheric Administration
    National Weather Service
    1325 East West Highway
    Silver Spring, MD 20910
    Page Author: NWS Internet Services Team
Disclaimer
Information Quality
Credits
Glossary
Privacy Policy
Freedom of Information Act (FOIA)
About Us
Career Opportunities